Overview Statistics Trail Chart Weather Telemetry Raw packets
 

This is the latest recevied weather packets stored in our database for station/object DO1BDB-12. If no packets are shown the sender has not sent any weather packets the latest 10 day(s).

<< 467 468 469 470 471 472 473 >>
Time Temp. Humidity Pressure Rain* Wind** Luminosity Snow
1787823814 27.78° C 36% 102 hPa - - - -
1787823749 26.67° C 36% 102 hPa - - - -
1787823683 27.22° C 35% 102 hPa - - - -
1787823617 27.78° C 35% 102 hPa - - - -
1787823551 25.56° C 38% 102 hPa - - - -
1787823485 26.11° C 38% 102 hPa - - - -
1787823419 25.56° C 40% 102 hPa - - - -
1787823353 27.22° C 38% 102 hPa - - - -
1787823288 25.56° C 40% 102 hPa - - - -
1787823222 25° C 41% 102 hPa - - - -
1787823156 25° C 41% 102 hPa - - - -
1787823090 25° C 41% 102 hPa - - - -
1787823024 25° C 42% 102 hPa - - - -
1787822958 24.44° C 42% 102 hPa - - - -
1787822893 25° C 42% 102 hPa - - - -
1787822827 24.44° C 42% 102 hPa - - - -
1787822761 23.89° C 43% 102 hPa - - - -
1787822695 23.33° C 43% 102 hPa - - - -
1787822629 23.33° C 44% 102 hPa - - - -
1787822563 23.33° C 44% 102 hPa - - - -
1787822498 23.89° C 43% 102 hPa - - - -
1787822432 23.89° C 44% 102 hPa - - - -
1787822366 23.33° C 45% 102 hPa - - - -
1787822300 23.33° C 45% 102 hPa - - - -
1787822234 23.33° C 46% 102 hPa - - - -

* Rain since midnight (hover to see other rain measurements)
** Current wind speed in m/s (hover to see current wind gust speed)